sensor_id;sensor_type;location;lat;lon;timestamp;P1;durP1;ratioP1;P2;durP2;ratioP2
19006;SDS011;9636;47.382;8.480;2024-03-17T00:02:06;6.17;;;1.73;;
19006;SDS011;9636;47.382;8.480;2024-03-17T00:04:33;2.60;;;1.50;;
19006;SDS011;9636;47.382;8.480;2024-03-17T00:07:00;3.03;;;1.53;;
19006;SDS011;9636;47.382;8.480;2024-03-17T00:09:27;5.40;;;1.70;;
19006;SDS011;9636;47.382;8.480;2024-03-17T00:11:54;2.17;;;1.10;;
19006;SDS011;9636;47.382;8.480;2024-03-17T00:14:21;6.67;;;1.60;;
19006;SDS011;9636;47.382;8.480;2024-03-17T00:16:47;3.37;;;1.50;;
19006;SDS011;9636;47.382;8.480;2024-03-17T00:19:14;5.50;;;2.03;;
19006;SDS011;9636;47.382;8.480;2024-03-17T00:21:41;4.67;;;2.07;;
19006;SDS011;9636;47.382;8.480;2024-03-17T00:24:10;7.47;;;1.70;;
19006;SDS011;9636;47.382;8.480;2024-03-17T00:26:38;2.53;;;1.70;;
19006;SDS011;9636;47.382;8.480;2024-03-17T00:29:05;5.43;;;2.17;;
19006;SDS011;9636;47.382;8.480;2024-03-17T00:31:31;2.47;;;1.93;;
19006;SDS011;9636;47.382;8.480;2024-03-17T00:33:58;7.20;;;2.13;;
19006;SDS011;9636;47.382;8.480;2024-03-17T00:36:24;3.97;;;2.10;;
19006;SDS011;9636;47.382;8.480;2024-03-17T00:38:51;10.50;;;2.10;;
19006;SDS011;9636;47.382;8.480;2024-03-17T00:41:18;3.67;;;1.50;;
19006;SDS011;9636;47.382;8.480;2024-03-17T00:43:46;8.03;;;1.97;;
19006;SDS011;9636;47.382;8.480;2024-03-17T00:46:12;4.70;;;1.83;;
19006;SDS011;9636;47.382;8.480;2024-03-17T00:48:39;5.53;;;1.90;;
19006;SDS011;9636;47.382;8.480;2024-03-17T00:51:05;5.50;;;1.83;;
19006;SDS011;9636;47.382;8.480;2024-03-17T00:53:31;6.67;;;2.00;;
19006;SDS011;9636;47.382;8.480;2024-03-17T00:55:57;3.73;;;1.70;;
19006;SDS011;9636;47.382;8.480;2024-03-17T00:58:26;6.30;;;2.10;;
19006;SDS011;9636;47.382;8.480;2024-03-17T01:00:52;4.17;;;2.00;;
19006;SDS011;9636;47.382;8.480;2024-03-17T01:03:19;6.70;;;1.90;;
19006;SDS011;9636;47.382;8.480;2024-03-17T01:05:45;6.83;;;1.87;;
19006;SDS011;9636;47.382;8.480;2024-03-17T01:08:13;3.77;;;1.67;;
19006;SDS011;9636;47.382;8.480;2024-03-17T01:10:39;4.27;;;1.70;;
19006;SDS011;9636;47.382;8.480;2024-03-17T01:13:06;7.13;;;2.17;;
19006;SDS011;9636;47.382;8.480;2024-03-17T01:15:35;2.87;;;1.70;;
19006;SDS011;9636;47.382;8.480;2024-03-17T01:18:03;3.97;;;1.83;;
19006;SDS011;9636;47.382;8.480;2024-03-17T01:20:29;3.33;;;1.90;;
19006;SDS011;9636;47.382;8.480;2024-03-17T01:22:56;5.90;;;2.27;;
19006;SDS011;9636;47.382;8.480;2024-03-17T01:25:22;3.83;;;1.70;;
19006;SDS011;9636;47.382;8.480;2024-03-17T01:27:50;3.77;;;1.63;;
19006;SDS011;9636;47.382;8.480;2024-03-17T01:30:16;6.23;;;1.60;;
19006;SDS011;9636;47.382;8.480;2024-03-17T01:32:45;5.23;;;2.33;;
19006;SDS011;9636;47.382;8.480;2024-03-17T01:35:11;4.67;;;1.87;;
19006;SDS011;9636;47.382;8.480;2024-03-17T01:37:38;5.53;;;1.80;;
19006;SDS011;9636;47.382;8.480;2024-03-17T01:40:05;3.30;;;1.80;;
19006;SDS011;9636;47.382;8.480;2024-03-17T01:42:34;3.40;;;1.90;;
19006;SDS011;9636;47.382;8.480;2024-03-17T01:45:00;7.83;;;2.33;;
19006;SDS011;9636;47.382;8.480;2024-03-17T01:47:26;3.57;;;2.03;;
19006;SDS011;9636;47.382;8.480;2024-03-17T01:49:54;4.10;;;2.10;;
19006;SDS011;9636;47.382;8.480;2024-03-17T01:52:21;4.63;;;2.27;;
19006;SDS011;9636;47.382;8.480;2024-03-17T01:54:47;5.57;;;2.03;;
19006;SDS011;9636;47.382;8.480;2024-03-17T01:57:14;6.60;;;2.27;;
19006;SDS011;9636;47.382;8.480;2024-03-17T01:59:40;5.07;;;2.10;;
19006;SDS011;9636;47.382;8.480;2024-03-17T02:02:07;8.93;;;1.93;;
19006;SDS011;9636;47.382;8.480;2024-03-17T02:04:33;6.43;;;2.17;;
19006;SDS011;9636;47.382;8.480;2024-03-17T02:07:01;4.63;;;1.90;;
19006;SDS011;9636;47.382;8.480;2024-03-17T02:09:27;5.03;;;2.17;;
19006;SDS011;9636;47.382;8.480;2024-03-17T02:11:53;5.57;;;1.97;;
19006;SDS011;9636;47.382;8.480;2024-03-17T02:14:19;4.47;;;1.80;;
19006;SDS011;9636;47.382;8.480;2024-03-17T02:16:46;6.20;;;1.90;;
19006;SDS011;9636;47.382;8.480;2024-03-17T02:19:12;5.37;;;2.00;;
19006;SDS011;9636;47.382;8.480;2024-03-17T02:21:39;6.73;;;2.23;;
19006;SDS011;9636;47.382;8.480;2024-03-17T02:24:07;5.93;;;1.87;;
19006;SDS011;9636;47.382;8.480;2024-03-17T02:26:34;4.33;;;2.10;;
19006;SDS011;9636;47.382;8.480;2024-03-17T02:29:00;5.87;;;2.30;;
19006;SDS011;9636;47.382;8.480;2024-03-17T02:31:27;6.53;;;1.83;;
19006;SDS011;9636;47.382;8.480;2024-03-17T02:33:53;5.80;;;1.80;;
19006;SDS011;9636;47.382;8.480;2024-03-17T02:36:19;4.47;;;1.70;;
19006;SDS011;9636;47.382;8.480;2024-03-17T02:38:45;3.97;;;1.70;;
19006;SDS011;9636;47.382;8.480;2024-03-17T02:41:31;5.17;;;2.03;;
19006;SDS011;9636;47.382;8.480;2024-03-17T02:43:58;5.33;;;2.37;;
19006;SDS011;9636;47.382;8.480;2024-03-17T02:46:25;3.03;;;1.77;;
19006;SDS011;9636;47.382;8.480;2024-03-17T02:48:52;11.37;;;2.37;;
19006;SDS011;9636;47.382;8.480;2024-03-17T02:51:21;6.23;;;2.43;;
19006;SDS011;9636;47.382;8.480;2024-03-17T02:53:49;5.90;;;2.07;;
19006;SDS011;9636;47.382;8.480;2024-03-17T02:56:16;6.37;;;2.03;;
19006;SDS011;9636;47.382;8.480;2024-03-17T02:58:46;3.97;;;2.07;;
19006;SDS011;9636;47.382;8.480;2024-03-17T03:01:14;6.30;;;2.23;;
19006;SDS011;9636;47.382;8.480;2024-03-17T03:03:41;4.43;;;1.77;;
19006;SDS011;9636;47.382;8.480;2024-03-17T03:06:08;7.00;;;2.17;;
19006;SDS011;9636;47.382;8.480;2024-03-17T03:08:36;2.77;;;2.00;;
19006;SDS011;9636;47.382;8.480;2024-03-17T03:11:05;5.47;;;2.13;;
19006;SDS011;9636;47.382;8.480;2024-03-17T03:13:36;4.93;;;1.80;;
19006;SDS011;9636;47.382;8.480;2024-03-17T03:16:05;3.77;;;1.97;;
19006;SDS011;9636;47.382;8.480;2024-03-17T03:18:33;4.70;;;2.00;;
19006;SDS011;9636;47.382;8.480;2024-03-17T03:21:00;3.97;;;1.90;;
19006;SDS011;9636;47.382;8.480;2024-03-17T03:23:26;4.97;;;1.90;;
19006;SDS011;9636;47.382;8.480;2024-03-17T03:25:56;4.60;;;1.80;;
19006;SDS011;9636;47.382;8.480;2024-03-17T03:28:23;7.20;;;1.77;;
19006;SDS011;9636;47.382;8.480;2024-03-17T03:30:50;5.47;;;1.73;;
19006;SDS011;9636;47.382;8.480;2024-03-17T03:33:18;3.40;;;1.60;;
19006;SDS011;9636;47.382;8.480;2024-03-17T03:35:46;5.23;;;1.80;;
19006;SDS011;9636;47.382;8.480;2024-03-17T03:38:12;4.40;;;2.00;;
19006;SDS011;9636;47.382;8.480;2024-03-17T03:40:39;4.47;;;1.67;;
19006;SDS011;9636;47.382;8.480;2024-03-17T03:43:07;5.20;;;2.20;;
19006;SDS011;9636;47.382;8.480;2024-03-17T03:45:34;4.43;;;1.90;;
19006;SDS011;9636;47.382;8.480;2024-03-17T03:48:01;3.83;;;1.97;;
19006;SDS011;9636;47.382;8.480;2024-03-17T03:50:29;5.10;;;1.80;;
19006;SDS011;9636;47.382;8.480;2024-03-17T03:52:57;3.27;;;1.70;;
19006;SDS011;9636;47.382;8.480;2024-03-17T03:55:24;5.20;;;2.40;;
19006;SDS011;9636;47.382;8.480;2024-03-17T03:57:51;6.20;;;2.40;;
19006;SDS011;9636;47.382;8.480;2024-03-17T04:00:18;7.27;;;2.63;;
19006;SDS011;9636;47.382;8.480;2024-03-17T04:02:47;5.23;;;2.50;;
19006;SDS011;9636;47.382;8.480;2024-03-17T04:05:14;8.17;;;3.20;;
19006;SDS011;9636;47.382;8.480;2024-03-17T04:07:43;7.97;;;3.30;;
19006;SDS011;9636;47.382;8.480;2024-03-17T04:10:12;6.13;;;2.73;;
19006;SDS011;9636;47.382;8.480;2024-03-17T04:12:39;6.23;;;3.00;;
19006;SDS011;9636;47.382;8.480;2024-03-17T04:15:06;3.60;;;2.27;;
19006;SDS011;9636;47.382;8.480;2024-03-17T04:17:35;9.80;;;2.97;;
19006;SDS011;9636;47.382;8.480;2024-03-17T04:20:02;11.13;;;3.87;;
19006;SDS011;9636;47.382;8.480;2024-03-17T04:22:30;7.70;;;3.30;;
19006;SDS011;9636;47.382;8.480;2024-03-17T04:24:58;6.50;;;2.77;;
19006;SDS011;9636;47.382;8.480;2024-03-17T04:27:25;4.07;;;2.63;;
19006;SDS011;9636;47.382;8.480;2024-03-17T04:29:53;6.17;;;2.90;;
19006;SDS011;9636;47.382;8.480;2024-03-17T04:32:21;5.77;;;1.90;;
19006;SDS011;9636;47.382;8.480;2024-03-17T04:34:48;4.67;;;2.27;;
19006;SDS011;9636;47.382;8.480;2024-03-17T04:37:15;4.70;;;2.27;;
19006;SDS011;9636;47.382;8.480;2024-03-17T04:39:43;2.30;;;1.83;;
19006;SDS011;9636;47.382;8.480;2024-03-17T04:42:12;4.70;;;1.53;;
19006;SDS011;9636;47.382;8.480;2024-03-17T04:44:40;2.47;;;1.50;;
19006;SDS011;9636;47.382;8.480;2024-03-17T04:47:07;2.73;;;1.53;;
19006;SDS011;9636;47.382;8.480;2024-03-17T04:49:35;2.67;;;1.57;;
19006;SDS011;9636;47.382;8.480;2024-03-17T04:52:02;5.03;;;1.47;;
19006;SDS011;9636;47.382;8.480;2024-03-17T04:54:30;3.03;;;1.73;;
19006;SDS011;9636;47.382;8.480;2024-03-17T04:56:57;5.10;;;1.60;;
19006;SDS011;9636;47.382;8.480;2024-03-17T04:59:25;4.70;;;1.50;;
19006;SDS011;9636;47.382;8.480;2024-03-17T05:01:52;5.80;;;1.87;;
19006;SDS011;9636;47.382;8.480;2024-03-17T05:04:19;5.17;;;1.70;;
19006;SDS011;9636;47.382;8.480;2024-03-17T05:06:48;3.83;;;1.87;;
19006;SDS011;9636;47.382;8.480;2024-03-17T05:09:15;4.00;;;1.80;;
19006;SDS011;9636;47.382;8.480;2024-03-17T05:11:42;3.37;;;1.73;;
19006;SDS011;9636;47.382;8.480;2024-03-17T05:14:09;4.17;;;1.87;;
19006;SDS011;9636;47.382;8.480;2024-03-17T05:16:38;6.20;;;2.00;;
19006;SDS011;9636;47.382;8.480;2024-03-17T05:19:05;2.90;;;1.63;;
19006;SDS011;9636;47.382;8.480;2024-03-17T05:21:34;3.30;;;1.47;;
19006;SDS011;9636;47.382;8.480;2024-03-17T05:24:01;2.67;;;1.67;;
19006;SDS011;9636;47.382;8.480;2024-03-17T05:26:28;2.57;;;1.40;;
19006;SDS011;9636;47.382;8.480;2024-03-17T05:28:55;3.23;;;1.53;;
19006;SDS011;9636;47.382;8.480;2024-03-17T05:31:22;3.40;;;1.57;;
19006;SDS011;9636;47.382;8.480;2024-03-17T05:33:51;2.50;;;1.30;;
19006;SDS011;9636;47.382;8.480;2024-03-17T05:36:18;4.63;;;1.50;;
19006;SDS011;9636;47.382;8.480;2024-03-17T05:38:46;5.93;;;1.60;;
19006;SDS011;9636;47.382;8.480;2024-03-17T05:41:13;6.73;;;2.07;;
19006;SDS011;9636;47.382;8.480;2024-03-17T05:43:40;5.00;;;1.73;;
19006;SDS011;9636;47.382;8.480;2024-03-17T05:46:08;3.37;;;1.67;;
19006;SDS011;9636;47.382;8.480;2024-03-17T05:48:36;7.53;;;1.60;;
19006;SDS011;9636;47.382;8.480;2024-03-17T05:51:05;5.27;;;2.10;;
19006;SDS011;9636;47.382;8.480;2024-03-17T05:53:32;4.87;;;1.63;;
19006;SDS011;9636;47.382;8.480;2024-03-17T05:55:59;3.47;;;2.17;;
19006;SDS011;9636;47.382;8.480;2024-03-17T05:58:26;5.00;;;2.40;;
19006;SDS011;9636;47.382;8.480;2024-03-17T06:00:53;2.43;;;1.97;;
19006;SDS011;9636;47.382;8.480;2024-03-17T06:03:20;2.77;;;2.00;;
19006;SDS011;9636;47.382;8.480;2024-03-17T06:05:47;3.00;;;1.83;;
19006;SDS011;9636;47.382;8.480;2024-03-17T06:08:16;4.57;;;2.40;;
19006;SDS011;9636;47.382;8.480;2024-03-17T06:10:43;3.73;;;2.40;;
19006;SDS011;9636;47.382;8.480;2024-03-17T06:13:11;5.33;;;2.20;;
19006;SDS011;9636;47.382;8.480;2024-03-17T06:15:40;3.03;;;1.80;;
19006;SDS011;9636;47.382;8.480;2024-03-17T06:18:07;2.87;;;2.03;;
19006;SDS011;9636;47.382;8.480;2024-03-17T06:20:39;3.83;;;2.00;;
19006;SDS011;9636;47.382;8.480;2024-03-17T06:23:08;4.77;;;2.47;;
19006;SDS011;9636;47.382;8.480;2024-03-17T06:25:39;5.20;;;2.20;;
19006;SDS011;9636;47.382;8.480;2024-03-17T06:28:06;3.70;;;2.87;;
19006;SDS011;9636;47.382;8.480;2024-03-17T06:30:34;4.27;;;2.83;;
19006;SDS011;9636;47.382;8.480;2024-03-17T06:33:02;5.17;;;3.03;;
19006;SDS011;9636;47.382;8.480;2024-03-17T06:35:30;5.60;;;3.00;;
19006;SDS011;9636;47.382;8.480;2024-03-17T06:37:58;7.73;;;3.30;;
19006;SDS011;9636;47.382;8.480;2024-03-17T06:40:26;7.50;;;3.23;;
19006;SDS011;9636;47.382;8.480;2024-03-17T06:42:54;6.33;;;3.40;;
19006;SDS011;9636;47.382;8.480;2024-03-17T06:45:21;5.47;;;3.47;;
19006;SDS011;9636;47.382;8.480;2024-03-17T06:47:49;6.77;;;3.70;;
19006;SDS011;9636;47.382;8.480;2024-03-17T06:50:16;11.33;;;5.17;;
19006;SDS011;9636;47.382;8.480;2024-03-17T06:52:43;11.57;;;5.23;;
19006;SDS011;9636;47.382;8.480;2024-03-17T06:55:09;9.27;;;4.83;;
19006;SDS011;9636;47.382;8.480;2024-03-17T06:57:37;5.40;;;4.40;;
19006;SDS011;9636;47.382;8.480;2024-03-17T07:00:10;9.47;;;4.97;;
19006;SDS011;9636;47.382;8.480;2024-03-17T07:02:39;12.80;;;4.90;;
19006;SDS011;9636;47.382;8.480;2024-03-17T07:05:10;7.90;;;4.73;;
19006;SDS011;9636;47.382;8.480;2024-03-17T07:07:39;8.30;;;5.20;;
19006;SDS011;9636;47.382;8.480;2024-03-17T07:10:06;9.53;;;5.50;;
19006;SDS011;9636;47.382;8.480;2024-03-17T07:12:33;8.70;;;4.57;;
19006;SDS011;9636;47.382;8.480;2024-03-17T07:15:00;12.17;;;5.20;;
19006;SDS011;9636;47.382;8.480;2024-03-17T07:17:28;13.87;;;5.30;;
19006;SDS011;9636;47.382;8.480;2024-03-17T07:19:55;9.13;;;5.40;;
19006;SDS011;9636;47.382;8.480;2024-03-17T07:22:22;7.73;;;5.13;;
19006;SDS011;9636;47.382;8.480;2024-03-17T07:24:51;9.17;;;5.30;;
19006;SDS011;9636;47.382;8.480;2024-03-17T07:27:20;8.23;;;5.60;;
19006;SDS011;9636;47.382;8.480;2024-03-17T07:29:47;15.93;;;6.03;;
19006;SDS011;9636;47.382;8.480;2024-03-17T07:32:14;9.37;;;5.50;;
19006;SDS011;9636;47.382;8.480;2024-03-17T07:34:42;8.97;;;5.83;;
19006;SDS011;9636;47.382;8.480;2024-03-17T07:37:09;9.83;;;5.77;;
19006;SDS011;9636;47.382;8.480;2024-03-17T07:39:36;9.50;;;6.10;;
19006;SDS011;9636;47.382;8.480;2024-03-17T07:42:03;8.67;;;6.40;;
19006;SDS011;9636;47.382;8.480;2024-03-17T07:44:31;11.23;;;6.50;;
19006;SDS011;9636;47.382;8.480;2024-03-17T07:46:59;11.80;;;5.70;;
19006;SDS011;9636;47.382;8.480;2024-03-17T07:49:26;12.97;;;6.10;;
19006;SDS011;9636;47.382;8.480;2024-03-17T07:51:54;11.57;;;6.23;;
19006;SDS011;9636;47.382;8.480;2024-03-17T07:54:22;11.20;;;5.87;;
19006;SDS011;9636;47.382;8.480;2024-03-17T07:56:49;10.77;;;6.50;;
19006;SDS011;9636;47.382;8.480;2024-03-17T07:59:16;11.30;;;6.97;;
19006;SDS011;9636;47.382;8.480;2024-03-17T08:01:43;8.97;;;7.03;;
19006;SDS011;9636;47.382;8.480;2024-03-17T08:04:10;12.03;;;7.10;;
19006;SDS011;9636;47.382;8.480;2024-03-17T08:06:37;11.83;;;7.60;;
19006;SDS011;9636;47.382;8.480;2024-03-17T08:09:06;13.13;;;7.90;;
19006;SDS011;9636;47.382;8.480;2024-03-17T08:11:33;11.50;;;7.17;;
19006;SDS011;9636;47.382;8.480;2024-03-17T08:14:00;12.43;;;7.73;;
19006;SDS011;9636;47.382;8.480;2024-03-17T08:16:27;12.27;;;6.80;;
19006;SDS011;9636;47.382;8.480;2024-03-17T08:18:55;11.80;;;6.67;;
19006;SDS011;9636;47.382;8.480;2024-03-17T08:21:21;11.23;;;6.93;;
19006;SDS011;9636;47.382;8.480;2024-03-17T08:23:49;10.60;;;6.93;;
19006;SDS011;9636;47.382;8.480;2024-03-17T08:26:18;10.63;;;6.80;;
19006;SDS011;9636;47.382;8.480;2024-03-17T08:28:44;10.80;;;7.07;;
19006;SDS011;9636;47.382;8.480;2024-03-17T08:31:12;10.03;;;6.20;;
19006;SDS011;9636;47.382;8.480;2024-03-17T08:33:40;9.60;;;6.30;;
19006;SDS011;9636;47.382;8.480;2024-03-17T08:36:08;11.47;;;6.50;;
19006;SDS011;9636;47.382;8.480;2024-03-17T08:38:36;9.77;;;7.13;;
19006;SDS011;9636;47.382;8.480;2024-03-17T08:41:04;9.77;;;6.00;;
19006;SDS011;9636;47.382;8.480;2024-03-17T08:43:33;11.90;;;5.83;;
19006;SDS011;9636;47.382;8.480;2024-03-17T08:46:01;8.43;;;6.30;;
19006;SDS011;9636;47.382;8.480;2024-03-17T08:48:30;10.00;;;6.80;;
19006;SDS011;9636;47.382;8.480;2024-03-17T08:50:58;10.87;;;6.47;;
19006;SDS011;9636;47.382;8.480;2024-03-17T08:53:26;8.53;;;6.10;;
19006;SDS011;9636;47.382;8.480;2024-03-17T08:55:54;8.37;;;5.40;;
19006;SDS011;9636;47.382;8.480;2024-03-17T08:58:21;8.87;;;6.13;;
19006;SDS011;9636;47.382;8.480;2024-03-17T09:00:49;9.40;;;5.40;;
19006;SDS011;9636;47.382;8.480;2024-03-17T09:03:16;8.00;;;5.80;;
19006;SDS011;9636;47.382;8.480;2024-03-17T09:05:44;10.63;;;5.90;;
19006;SDS011;9636;47.382;8.480;2024-03-17T09:08:15;8.90;;;5.57;;
19006;SDS011;9636;47.382;8.480;2024-03-17T09:10:43;5.60;;;4.70;;
19006;SDS011;9636;47.382;8.480;2024-03-17T09:13:11;7.30;;;4.70;;
19006;SDS011;9636;47.382;8.480;2024-03-17T09:15:40;7.60;;;4.80;;
19006;SDS011;9636;47.382;8.480;2024-03-17T09:18:08;8.73;;;5.13;;
19006;SDS011;9636;47.382;8.480;2024-03-17T09:20:35;7.73;;;5.63;;
19006;SDS011;9636;47.382;8.480;2024-03-17T09:23:02;6.77;;;5.00;;
19006;SDS011;9636;47.382;8.480;2024-03-17T09:25:28;6.27;;;4.60;;
19006;SDS011;9636;47.382;8.480;2024-03-17T09:27:55;8.87;;;4.70;;
19006;SDS011;9636;47.382;8.480;2024-03-17T09:30:23;10.27;;;5.57;;
19006;SDS011;9636;47.382;8.480;2024-03-17T09:32:50;8.67;;;6.13;;
19006;SDS011;9636;47.382;8.480;2024-03-17T09:35:18;8.60;;;6.10;;
19006;SDS011;9636;47.382;8.480;2024-03-17T09:37:45;9.70;;;5.80;;
19006;SDS011;9636;47.382;8.480;2024-03-17T09:40:13;8.77;;;5.57;;
19006;SDS011;9636;47.382;8.480;2024-03-17T09:42:41;8.87;;;5.83;;
19006;SDS011;9636;47.382;8.480;2024-03-17T09:45:08;8.80;;;6.20;;
19006;SDS011;9636;47.382;8.480;2024-03-17T09:47:37;8.00;;;5.90;;
19006;SDS011;9636;47.382;8.480;2024-03-17T09:50:05;7.40;;;5.60;;
19006;SDS011;9636;47.382;8.480;2024-03-17T09:52:40;5.77;;;5.20;;
19006;SDS011;9636;47.382;8.480;2024-03-17T09:55:09;7.73;;;5.87;;
19006;SDS011;9636;47.382;8.480;2024-03-17T09:57:42;10.17;;;5.97;;
19006;SDS011;9636;47.382;8.480;2024-03-17T10:00:09;10.13;;;5.87;;
19006;SDS011;9636;47.382;8.480;2024-03-17T10:02:41;10.93;;;5.97;;
19006;SDS011;9636;47.382;8.480;2024-03-17T10:05:17;8.60;;;5.87;;
19006;SDS011;9636;47.382;8.480;2024-03-17T10:07:47;10.07;;;6.33;;
19006;SDS011;9636;47.382;8.480;2024-03-17T10:10:14;10.00;;;6.17;;
19006;SDS011;9636;47.382;8.480;2024-03-17T10:12:41;8.70;;;5.97;;
19006;SDS011;9636;47.382;8.480;2024-03-17T10:15:10;10.53;;;6.73;;
19006;SDS011;9636;47.382;8.480;2024-03-17T10:17:37;8.97;;;6.40;;
19006;SDS011;9636;47.382;8.480;2024-03-17T10:20:11;8.60;;;6.67;;
19006;SDS011;9636;47.382;8.480;2024-03-17T10:22:40;12.17;;;7.37;;
19006;SDS011;9636;47.382;8.480;2024-03-17T10:25:24;9.17;;;7.27;;
19006;SDS011;9636;47.382;8.480;2024-03-17T10:27:51;9.70;;;7.50;;
19006;SDS011;9636;47.382;8.480;2024-03-17T10:30:19;10.50;;;8.20;;
19006;SDS011;9636;47.382;8.480;2024-03-17T10:32:51;9.30;;;7.17;;
19006;SDS011;9636;47.382;8.480;2024-03-17T10:35:27;10.77;;;7.50;;
19006;SDS011;9636;47.382;8.480;2024-03-17T10:37:55;11.87;;;7.90;;
19006;SDS011;9636;47.382;8.480;2024-03-17T10:40:25;10.37;;;8.03;;
19006;SDS011;9636;47.382;8.480;2024-03-17T10:42:52;10.10;;;8.73;;
19006;SDS011;9636;47.382;8.480;2024-03-17T10:45:20;10.43;;;7.93;;
19006;SDS011;9636;47.382;8.480;2024-03-17T10:47:48;10.73;;;7.53;;
19006;SDS011;9636;47.382;8.480;2024-03-17T10:50:17;9.47;;;7.27;;
19006;SDS011;9636;47.382;8.480;2024-03-17T10:52:45;10.47;;;7.73;;
19006;SDS011;9636;47.382;8.480;2024-03-17T10:55:19;11.50;;;7.40;;
19006;SDS011;9636;47.382;8.480;2024-03-17T10:57:50;9.27;;;6.70;;
19006;SDS011;9636;47.382;8.480;2024-03-17T11:00:18;8.97;;;5.93;;
19006;SDS011;9636;47.382;8.480;2024-03-17T11:02:47;8.00;;;5.50;;
19006;SDS011;9636;47.382;8.480;2024-03-17T11:05:17;5.47;;;3.60;;
19006;SDS011;9636;47.382;8.480;2024-03-17T11:07:46;6.20;;;3.77;;
19006;SDS011;9636;47.382;8.480;2024-03-17T11:10:15;10.20;;;3.50;;
19006;SDS011;9636;47.382;8.480;2024-03-17T11:12:46;6.70;;;3.90;;
19006;SDS011;9636;47.382;8.480;2024-03-17T11:20:57;4.77;;;3.50;;
19006;SDS011;9636;47.382;8.480;2024-03-17T11:23:26;6.90;;;4.10;;
19006;SDS011;9636;47.382;8.480;2024-03-17T11:25:52;4.80;;;3.77;;
19006;SDS011;9636;47.382;8.480;2024-03-17T11:31:33;5.27;;;3.37;;
19006;SDS011;9636;47.382;8.480;2024-03-17T11:34:08;5.23;;;3.10;;
19006;SDS011;9636;47.382;8.480;2024-03-17T11:37:02;6.43;;;2.90;;
19006;SDS011;9636;47.382;8.480;2024-03-17T11:39:48;7.13;;;3.37;;
19006;SDS011;9636;47.382;8.480;2024-03-17T11:42:25;4.67;;;3.10;;
19006;SDS011;9636;47.382;8.480;2024-03-17T11:44:58;4.50;;;2.87;;
19006;SDS011;9636;47.382;8.480;2024-03-17T11:47:38;5.47;;;2.90;;
19006;SDS011;9636;47.382;8.480;2024-03-17T11:50:08;6.03;;;2.97;;
19006;SDS011;9636;47.382;8.480;2024-03-17T11:52:39;4.93;;;2.97;;
19006;SDS011;9636;47.382;8.480;2024-03-17T11:55:14;5.40;;;3.10;;
19006;SDS011;9636;47.382;8.480;2024-03-17T11:57:42;5.40;;;2.90;;
19006;SDS011;9636;47.382;8.480;2024-03-17T12:00:18;6.90;;;3.00;;
19006;SDS011;9636;47.382;8.480;2024-03-17T12:02:47;5.87;;;2.80;;
19006;SDS011;9636;47.382;8.480;2024-03-17T12:05:15;3.87;;;2.53;;
19006;SDS011;9636;47.382;8.480;2024-03-17T12:07:42;6.37;;;3.00;;
19006;SDS011;9636;47.382;8.480;2024-03-17T12:10:09;5.77;;;3.60;;
19006;SDS011;9636;47.382;8.480;2024-03-17T12:12:38;5.60;;;3.00;;
19006;SDS011;9636;47.382;8.480;2024-03-17T12:15:11;5.60;;;3.07;;
19006;SDS011;9636;47.382;8.480;2024-03-17T12:17:42;8.63;;;4.47;;
19006;SDS011;9636;47.382;8.480;2024-03-17T12:20:15;9.97;;;4.53;;
19006;SDS011;9636;47.382;8.480;2024-03-17T12:22:43;12.47;;;5.40;;
19006;SDS011;9636;47.382;8.480;2024-03-17T12:25:09;7.47;;;5.70;;
19006;SDS011;9636;47.382;8.480;2024-03-17T12:27:43;10.30;;;5.37;;
19006;SDS011;9636;47.382;8.480;2024-03-17T12:30:11;8.37;;;4.80;;
19006;SDS011;9636;47.382;8.480;2024-03-17T12:32:38;7.83;;;5.03;;
19006;SDS011;9636;47.382;8.480;2024-03-17T12:35:09;6.97;;;3.97;;
19006;SDS011;9636;47.382;8.480;2024-03-17T12:37:40;5.93;;;2.57;;
19006;SDS011;9636;47.382;8.480;2024-03-17T12:40:17;5.23;;;2.30;;
19006;SDS011;9636;47.382;8.480;2024-03-17T12:42:47;3.50;;;2.03;;
19006;SDS011;9636;47.382;8.480;2024-03-17T12:45:18;4.90;;;2.47;;
19006;SDS011;9636;47.382;8.480;2024-03-17T12:47:46;5.17;;;2.17;;
19006;SDS011;9636;47.382;8.480;2024-03-17T12:50:13;2.63;;;1.70;;
19006;SDS011;9636;47.382;8.480;2024-03-17T12:52:46;3.27;;;1.93;;
19006;SDS011;9636;47.382;8.480;2024-03-17T12:55:18;3.33;;;1.90;;
19006;SDS011;9636;47.382;8.480;2024-03-17T12:58:07;4.47;;;2.27;;
19006;SDS011;9636;47.382;8.480;2024-03-17T13:00:58;6.10;;;2.67;;
19006;SDS011;9636;47.382;8.480;2024-03-17T13:03:27;7.07;;;2.83;;
19006;SDS011;9636;47.382;8.480;2024-03-17T13:05:56;5.20;;;2.70;;
19006;SDS011;9636;47.382;8.480;2024-03-17T13:08:25;7.23;;;3.30;;
19006;SDS011;9636;47.382;8.480;2024-03-17T13:10:51;4.10;;;2.67;;
19006;SDS011;9636;47.382;8.480;2024-03-17T13:13:18;6.40;;;2.83;;
19006;SDS011;9636;47.382;8.480;2024-03-17T13:15:45;5.43;;;3.13;;
19006;SDS011;9636;47.382;8.480;2024-03-17T13:18:15;7.13;;;3.80;;
19006;SDS011;9636;47.382;8.480;2024-03-17T13:20:44;7.00;;;3.13;;
19006;SDS011;9636;47.382;8.480;2024-03-17T13:23:11;10.03;;;3.87;;
19006;SDS011;9636;47.382;8.480;2024-03-17T13:25:39;6.00;;;3.00;;
19006;SDS011;9636;47.382;8.480;2024-03-17T13:28:08;6.27;;;3.60;;
19006;SDS011;9636;47.382;8.480;2024-03-17T13:30:36;3.97;;;3.10;;
19006;SDS011;9636;47.382;8.480;2024-03-17T13:33:04;5.67;;;2.87;;
19006;SDS011;9636;47.382;8.480;2024-03-17T13:35:33;5.67;;;2.90;;
19006;SDS011;9636;47.382;8.480;2024-03-17T13:38:04;5.07;;;2.80;;
19006;SDS011;9636;47.382;8.480;2024-03-17T13:40:32;4.73;;;2.50;;
19006;SDS011;9636;47.382;8.480;2024-03-17T13:43:00;5.90;;;2.47;;
19006;SDS011;9636;47.382;8.480;2024-03-17T13:45:28;4.10;;;2.53;;
19006;SDS011;9636;47.382;8.480;2024-03-17T13:48:02;4.53;;;2.30;;
19006;SDS011;9636;47.382;8.480;2024-03-17T13:50:30;5.53;;;2.40;;
19006;SDS011;9636;47.382;8.480;2024-03-17T13:52:57;3.23;;;1.93;;
19006;SDS011;9636;47.382;8.480;2024-03-17T13:55:24;4.73;;;2.10;;
19006;SDS011;9636;47.382;8.480;2024-03-17T13:57:52;3.93;;;1.83;;
19006;SDS011;9636;47.382;8.480;2024-03-17T14:00:21;5.80;;;3.30;;
19006;SDS011;9636;47.382;8.480;2024-03-17T14:02:49;4.57;;;2.40;;
19006;SDS011;9636;47.382;8.480;2024-03-17T14:05:18;3.13;;;2.00;;
19006;SDS011;9636;47.382;8.480;2024-03-17T14:07:46;27.47;;;16.47;;
19006;SDS011;9636;47.382;8.480;2024-03-17T14:10:13;10.77;;;6.77;;
19006;SDS011;9636;47.382;8.480;2024-03-17T14:12:41;15.43;;;8.80;;
19006;SDS011;9636;47.382;8.480;2024-03-17T14:15:09;19.07;;;15.03;;
19006;SDS011;9636;47.382;8.480;2024-03-17T14:17:39;22.90;;;18.13;;
19006;SDS011;9636;47.382;8.480;2024-03-17T14:20:07;11.60;;;8.53;;
19006;SDS011;9636;47.382;8.480;2024-03-17T14:22:35;32.33;;;23.47;;
19006;SDS011;9636;47.382;8.480;2024-03-17T14:25:03;11.10;;;6.90;;
19006;SDS011;9636;47.382;8.480;2024-03-17T14:27:30;13.37;;;8.70;;
19006;SDS011;9636;47.382;8.480;2024-03-17T14:29:57;11.23;;;7.90;;
19006;SDS011;9636;47.382;8.480;2024-03-17T14:32:24;6.47;;;3.73;;
19006;SDS011;9636;47.382;8.480;2024-03-17T14:34:52;18.23;;;11.20;;
19006;SDS011;9636;47.382;8.480;2024-03-17T14:37:19;21.67;;;12.87;;
19006;SDS011;9636;47.382;8.480;2024-03-17T14:39:47;15.77;;;9.67;;
19006;SDS011;9636;47.382;8.480;2024-03-17T14:42:14;3.00;;;1.77;;
19006;SDS011;9636;47.382;8.480;2024-03-17T14:44:41;2.17;;;1.60;;
19006;SDS011;9636;47.382;8.480;2024-03-17T14:47:08;9.03;;;4.77;;
19006;SDS011;9636;47.382;8.480;2024-03-17T14:49:36;7.33;;;5.07;;
19006;SDS011;9636;47.382;8.480;2024-03-17T14:52:04;8.30;;;4.30;;
19006;SDS011;9636;47.382;8.480;2024-03-17T14:54:31;11.90;;;7.83;;
19006;SDS011;9636;47.382;8.480;2024-03-17T14:56:58;5.00;;;2.47;;
19006;SDS011;9636;47.382;8.480;2024-03-17T14:59:25;7.00;;;2.97;;
19006;SDS011;9636;47.382;8.480;2024-03-17T15:01:51;2.80;;;1.60;;
19006;SDS011;9636;47.382;8.480;2024-03-17T15:04:18;12.87;;;7.97;;
19006;SDS011;9636;47.382;8.480;2024-03-17T15:06:45;4.17;;;2.00;;
19006;SDS011;9636;47.382;8.480;2024-03-17T15:09:13;4.60;;;1.97;;
19006;SDS011;9636;47.382;8.480;2024-03-17T15:11:44;4.07;;;2.10;;
19006;SDS011;9636;47.382;8.480;2024-03-17T15:14:11;5.67;;;1.80;;